Time;durP1;ratioP1;P1;durP2;ratioP2;P2;SDS_P1;SDS_P2;PMS_P1;PMS_P2;Temp;Humidity;BMP_temperature;BMP_pressure;BME280_temperature;BME280_humidity;BME280_pressure;Samples;Min_cycle;Max_cycle;Signal;HPM_P1;HPM_P2
2024/03/23 05:05:43;;;;;;;0.30;0.30;;;11.00;99.90;;;;;;5961029;23;20482;-59
2024/03/23 05:08:09;;;;;;;0.30;0.30;;;11.00;99.90;;;;;;4898003;29;20867;-59
2024/03/23 05:10:34;;;;;;;0.40;0.40;;;10.90;99.90;;;;;;4898039;29;20181;-60
2024/03/23 05:13:00;;;;;;;0.30;0.30;;;10.80;99.90;;;;;;4897959;29;20186;-59
2024/03/23 05:15:25;;;;;;;0.30;0.30;;;10.80;99.90;;;;;;4897514;29;20188;-61
2024/03/23 05:17:51;;;;;;;0.30;0.30;;;10.90;99.90;;;;;;4897797;29;20217;-59
2024/03/23 05:20:18;;;;;;;0.30;0.30;;;10.80;99.90;;;;;;4897664;29;20207;-61
2024/03/23 05:22:43;;;;;;;0.30;0.30;;;10.80;99.90;;;;;;4897915;29;20216;-59
2024/03/23 05:25:09;;;;;;;0.37;0.37;;;10.80;99.90;;;;;;4897642;29;20270;-59
2024/03/23 05:27:36;;;;;;;0.40;0.40;;;10.80;99.90;;;;;;4897774;29;20201;-60
2024/03/23 05:30:02;;;;;;;0.30;0.30;;;10.80;99.90;;;;;;4897599;29;20411;-59
2024/03/23 05:32:27;;;;;;;0.30;0.30;;;10.90;99.90;;;;;;4897686;29;20414;-59
2024/03/23 05:34:56;;;;;;;0.30;0.30;;;10.80;99.90;;;;;;4897242;29;20185;-61
2024/03/23 05:37:22;;;;;;;0.30;0.30;;;10.80;99.90;;;;;;4897014;29;20197;-59
2024/03/23 05:39:49;;;;;;;0.40;0.40;;;10.80;99.90;;;;;;4897467;29;20471;-59
2024/03/23 05:42:18;;;;;;;0.30;0.30;;;10.70;99.90;;;;;;4900943;29;20410;-59
2024/03/23 05:44:45;;;;;;;0.70;0.70;;;10.70;99.90;;;;;;4900919;29;20189;-59
2024/03/23 05:47:12;;;;;;;0.30;0.30;;;10.70;99.90;;;;;;4901310;29;20429;-59
2024/03/23 05:49:38;;;;;;;0.30;0.30;;;10.70;99.90;;;;;;4901723;29;20194;-60
2024/03/23 05:52:04;;;;;;;0.30;0.30;;;10.70;99.90;;;;;;4901057;29;20516;-59
2024/03/23 05:54:30;;;;;;;0.30;0.30;;;10.70;99.90;;;;;;4900819;29;20191;-60
2024/03/23 05:56:55;;;;;;;0.30;0.30;;;10.70;99.90;;;;;;4901246;29;20261;-58
2024/03/23 05:59:21;;;;;;;0.30;0.30;;;10.70;99.90;;;;;;4901120;29;20973;-59
2024/03/23 06:01:47;;;;;;;0.30;0.30;;;10.60;99.90;;;;;;4900966;29;20792;-57
2024/03/23 06:04:13;;;;;;;0.30;0.30;;;10.60;99.90;;;;;;4901152;29;20177;-59
2024/03/23 06:06:39;;;;;;;0.40;0.40;;;10.60;99.90;;;;;;4899237;29;20462;-61
2024/03/23 06:09:05;;;;;;;0.30;0.30;;;10.60;99.90;;;;;;4901188;29;20306;-60
2024/03/23 06:11:30;;;;;;;0.33;0.33;;;10.60;99.90;;;;;;4896290;29;20521;-57
2024/03/23 06:13:56;;;;;;;0.30;0.30;;;10.50;99.90;;;;;;4900973;29;20177;-58
2024/03/23 06:16:24;;;;;;;0.30;0.30;;;10.50;99.90;;;;;;4899572;29;20238;-60
2024/03/23 06:18:50;;;;;;;0.30;0.30;;;10.50;99.90;;;;;;4898392;29;21007;-58
2024/03/23 06:21:16;;;;;;;0.30;0.30;;;10.50;99.90;;;;;;4900690;29;20195;-59
2024/03/23 06:23:42;;;;;;;0.30;0.30;;;10.40;99.90;;;;;;4885904;29;20418;-57
2024/03/23 06:26:08;;;;;;;0.30;0.30;;;10.40;99.90;;;;;;4886487;29;20627;-59
2024/03/23 06:28:34;;;;;;;0.30;0.30;;;10.30;99.90;;;;;;4885297;29;20235;-58
2024/03/23 06:30:59;;;;;;;0.30;0.30;;;10.30;99.90;;;;;;4894255;29;20589;-59
2024/03/23 06:33:25;;;;;;;0.30;0.30;;;10.30;99.90;;;;;;4900504;29;20657;-58
2024/03/23 06:35:52;;;;;;;0.30;0.30;;;10.20;99.90;;;;;;4898739;29;20204;-55
2024/03/23 06:38:18;;;;;;;0.30;0.30;;;10.20;99.90;;;;;;4892161;29;20236;-56
2024/03/23 06:40:47;;;;;;;0.30;0.30;;;10.20;99.90;;;;;;4881761;29;20385;-58
2024/03/23 06:43:13;;;;;;;0.30;0.30;;;10.30;99.90;;;;;;4881531;29;20185;-59
2024/03/23 06:45:39;;;;;;;0.30;0.30;;;10.20;99.90;;;;;;4881149;29;20200;-59
2024/03/23 06:48:07;;;;;;;0.30;0.30;;;10.30;99.90;;;;;;4881296;29;20414;-58
2024/03/23 06:50:33;;;;;;;0.40;0.40;;;10.20;99.90;;;;;;4881593;29;20193;-59
2024/03/23 06:52:59;;;;;;;0.30;0.30;;;10.20;99.90;;;;;;4880256;29;20911;-56
2024/03/23 06:55:26;;;;;;;0.30;0.30;;;10.20;99.90;;;;;;4881814;29;20463;-59
2024/03/23 06:57:52;;;;;;;0.30;0.30;;;10.20;99.90;;;;;;4891098;29;20424;-60
2024/03/23 07:00:18;;;;;;;0.30;0.30;;;10.20;99.90;;;;;;4890016;29;20410;-58
2024/03/23 07:02:44;;;;;;;0.30;0.30;;;10.20;99.90;;;;;;4894539;29;20420;-61
2024/03/23 07:05:10;;;;;;;0.30;0.30;;;10.10;99.90;;;;;;4895533;29;20949;-57
2024/03/23 07:07:37;;;;;;;0.30;0.30;;;10.10;99.90;;;;;;4897960;29;20449;-59
2024/03/23 07:10:03;;;;;;;0.30;0.30;;;10.10;99.90;;;;;;4891092;29;20193;-61
2024/03/23 07:12:29;;;;;;;0.30;0.30;;;10.20;99.90;;;;;;4895996;29;20427;-58
2024/03/23 07:14:54;;;;;;;0.30;0.30;;;10.20;99.90;;;;;;4899435;29;20411;-60
2024/03/23 07:17:20;;;;;;;0.30;0.30;;;10.30;99.90;;;;;;4883912;29;20237;-59
2024/03/23 07:19:46;;;;;;;0.30;0.30;;;10.30;99.90;;;;;;4899357;29;20236;-60
2024/03/23 07:22:12;;;;;;;0.30;0.30;;;10.40;99.90;;;;;;4899289;29;20176;-60
2024/03/23 07:24:39;;;;;;;0.30;0.30;;;10.40;99.90;;;;;;4899210;29;20189;-60
2024/03/23 07:27:05;;;;;;;0.30;0.30;;;10.40;99.90;;;;;;4898930;29;20275;-59
2024/03/23 07:29:30;;;;;;;0.30;0.30;;;10.50;99.90;;;;;;4891947;29;20501;-59
2024/03/23 07:31:56;;;;;;;0.30;0.30;;;10.50;99.90;;;;;;4894808;29;20191;-60
2024/03/23 07:34:21;;;;;;;0.40;0.40;;;10.50;99.90;;;;;;4899002;29;20226;-63
2024/03/23 07:36:47;;;;;;;0.30;0.30;;;10.50;99.90;;;;;;4898789;29;20205;-61
2024/03/23 07:39:13;;;;;;;0.43;0.43;;;10.50;99.90;;;;;;4898845;29;20217;-61
2024/03/23 07:41:38;;;;;;;0.30;0.30;;;10.60;99.90;;;;;;4896892;29;20537;-61
2024/03/23 07:44:04;;;;;;;0.30;0.30;;;10.70;99.90;;;;;;4899089;29;20284;-60
2024/03/23 07:46:29;;;;;;;0.73;0.50;;;10.90;99.90;;;;;;4887630;29;20202;-60
2024/03/23 07:48:55;;;;;;;0.30;0.30;;;11.00;99.90;;;;;;4880313;29;20189;-61
2024/03/23 07:51:22;;;;;;;0.30;0.30;;;11.00;99.90;;;;;;4880200;29;20653;-62
2024/03/23 07:53:52;;;;;;;0.30;0.30;;;11.00;99.90;;;;;;4881075;29;20178;-61
2024/03/23 07:56:18;;;;;;;0.30;0.30;;;10.90;99.90;;;;;;4879676;29;20484;-61
2024/03/23 07:58:45;;;;;;;0.30;0.30;;;10.80;99.90;;;;;;4880166;29;20478;-60
2024/03/23 08:01:12;;;;;;;0.30;0.30;;;10.80;99.90;;;;;;4887805;29;20573;-60
2024/03/23 08:03:40;;;;;;;0.30;0.30;;;10.70;99.90;;;;;;4898239;29;20486;-62
2024/03/23 08:06:13;;;;;;;0.30;0.30;;;10.60;99.90;;;;;;4898076;29;20473;-60
2024/03/23 08:08:40;;;;;;;0.30;0.30;;;10.60;99.90;;;;;;4897461;29;20426;-60
2024/03/23 08:11:07;;;;;;;0.30;0.30;;;10.50;99.90;;;;;;4896557;29;20479;-59
2024/03/23 08:13:33;;;;;;;0.30;0.30;;;10.40;99.90;;;;;;4901141;29;20426;-60
2024/03/23 08:16:00;;;;;;;0.30;0.30;;;10.30;99.90;;;;;;4886093;29;20452;-62
2024/03/23 08:18:26;;;;;;;0.30;0.30;;;10.30;99.90;;;;;;4912694;29;20470;-60
2024/03/23 08:21:02;;;;;;;0.30;0.30;;;10.30;99.90;;;;;;4916002;29;20782;-60
2024/03/23 08:23:29;;;;;;;0.40;0.40;;;10.40;99.90;;;;;;4917314;29;20177;-60
2024/03/23 08:25:59;;;;;;;0.30;0.30;;;10.40;99.90;;;;;;4905286;29;20458;-60
2024/03/23 08:28:25;;;;;;;0.30;0.30;;;10.50;99.90;;;;;;4894201;29;20919;-61
2024/03/23 08:30:52;;;;;;;0.30;0.30;;;10.60;99.90;;;;;;4906111;29;20940;-60
2024/03/23 08:33:17;;;;;;;0.30;0.30;;;10.50;99.90;;;;;;4898213;29;20413;-62
2024/03/23 08:35:55;;;;;;;0.30;0.30;;;10.40;99.90;;;;;;4897463;29;20497;-60
2024/03/23 08:38:25;;;;;;;0.30;0.30;;;10.20;99.90;;;;;;4898370;29;20208;-63
2024/03/23 08:41:02;;;;;;;0.60;0.60;;;10.00;99.90;;;;;;4898157;29;20457;-61
2024/03/23 08:43:29;;;;;;;0.33;0.33;;;10.00;99.90;;;;;;4896045;29;20500;-60
2024/03/23 08:46:12;;;;;;;0.30;0.30;;;10.00;99.90;;;;;;4891374;29;20445;-62
2024/03/23 08:48:46;;;;;;;0.30;0.30;;;10.00;99.90;;;;;;4879363;29;20512;-62
2024/03/23 08:51:16;;;;;;;0.30;0.30;;;10.10;99.90;;;;;;4879327;29;20207;-61
2024/03/23 08:53:44;;;;;;;0.30;0.30;;;10.60;99.90;;;;;;4903157;29;20857;-63
2024/03/23 08:56:10;;;;;;;0.30;0.30;;;10.90;99.90;;;;;;4879469;29;20468;-60
2024/03/23 08:58:37;;;;;;;0.30;0.30;;;11.20;99.90;;;;;;4892030;29;20520;-61
2024/03/23 09:01:15;;;;;;;0.30;0.30;;;11.40;99.90;;;;;;4882027;29;20534;-60
2024/03/23 09:03:41;;;;;;;0.30;0.30;;;11.30;99.90;;;;;;4885112;29;20757;-60
2024/03/23 09:06:11;;;;;;;0.30;0.30;;;11.10;99.90;;;;;;4886809;29;20438;-64
2024/03/23 09:08:37;;;;;;;0.30;0.30;;;10.80;99.90;;;;;;4877934;29;20459;-65
2024/03/23 09:11:09;;;;;;;0.30;0.30;;;10.60;99.90;;;;;;4895812;29;20459;-65
2024/03/23 09:13:36;;;;;;;0.30;0.30;;;10.50;99.90;;;;;;4883767;29;20193;-65
2024/03/23 09:16:02;;;;;;;0.30;0.30;;;10.40;99.90;;;;;;4887549;29;20854;-63
2024/03/23 09:18:27;;;;;;;0.40;0.40;;;10.20;99.90;;;;;;4878794;29;20566;-61
2024/03/23 09:20:54;;;;;;;0.30;0.30;;;10.00;99.90;;;;;;4894589;29;20854;-63
2024/03/23 09:23:21;;;;;;;0.30;0.30;;;9.90;99.90;;;;;;4895089;29;20222;-61
2024/03/23 09:25:46;;;;;;;0.30;0.30;;;9.80;99.90;;;;;;4896996;29;20516;-63
2024/03/23 09:28:13;;;;;;;0.40;0.40;;;9.80;99.90;;;;;;4888574;29;20960;-62
2024/03/23 09:30:44;;;;;;;0.30;0.30;;;9.80;99.90;;;;;;4876766;29;20275;-65
2024/03/23 09:33:13;;;;;;;0.30;0.30;;;10.20;99.90;;;;;;4888388;29;20436;-63
2024/03/23 09:35:39;;;;;;;0.30;0.30;;;11.10;99.90;;;;;;4914407;29;20409;-62
2024/03/23 09:38:07;;;;;;;0.30;0.30;;;11.60;99.90;;;;;;4916521;29;20513;-62
2024/03/23 09:40:33;;;;;;;0.30;0.30;;;12.20;99.90;;;;;;4916444;29;20431;-62
2024/03/23 09:42:58;;;;;;;0.33;0.33;;;12.70;99.90;;;;;;4916476;29;20408;-62
2024/03/23 09:45:28;;;;;;;0.30;0.30;;;12.90;99.90;;;;;;4915933;29;20892;-61
2024/03/23 09:47:57;;;;;;;0.30;0.30;;;13.30;99.90;;;;;;4908715;29;20268;-62
2024/03/23 09:50:23;;;;;;;0.30;0.30;;;13.10;99.80;;;;;;4895202;29;20504;-64
2024/03/23 09:52:49;;;;;;;0.30;0.30;;;13.10;99.20;;;;;;4895651;29;20403;-61
2024/03/23 09:55:15;;;;;;;0.30;0.30;;;12.90;99.80;;;;;;4893838;29;20384;-64
2024/03/23 09:57:41;;;;;;;0.30;0.30;;;12.60;99.90;;;;;;4895684;29;20428;-63
2024/03/23 10:00:07;;;;;;;0.30;0.30;;;12.40;99.90;;;;;;4895443;29;20972;-62
2024/03/23 10:02:34;;;;;;;0.30;0.30;;;12.10;99.90;;;;;;4899550;29;20392;-63
2024/03/23 10:05:00;;;;;;;0.30;0.30;;;11.80;99.90;;;;;;4916014;29;20770;-62
2024/03/23 10:07:28;;;;;;;0.30;0.30;;;11.60;99.90;;;;;;4915908;29;20501;-63
2024/03/23 10:09:55;;;;;;;0.30;0.30;;;11.40;99.90;;;;;;4915900;29;20233;-63
2024/03/23 10:12:23;;;;;;;0.30;0.30;;;11.10;99.90;;;;;;4916059;29;20438;-61
2024/03/23 10:14:49;;;;;;;0.30;0.30;;;11.00;99.90;;;;;;4914183;29;20774;-61
2024/03/23 10:17:25;;;;;;;0.30;0.30;;;10.80;99.90;;;;;;4905880;29;20454;-61
2024/03/23 10:19:52;;;;;;;0.30;0.27;;;10.70;99.90;;;;;;4877111;29;20484;-61
2024/03/23 10:22:18;;;;;;;0.30;0.30;;;10.70;99.90;;;;;;4878736;29;20476;-61
2024/03/23 10:24:44;;;;;;;0.47;0.47;;;10.60;99.90;;;;;;4885751;29;21273;-61
2024/03/23 10:27:16;;;;;;;0.40;0.40;;;10.90;99.90;;;;;;4898140;29;20434;-62
2024/03/23 10:29:42;;;;;;;0.30;0.30;;;11.80;99.90;;;;;;4900241;29;20415;-60
2024/03/23 10:32:11;;;;;;;0.30;0.30;;;12.90;99.90;;;;;;4900000;29;20444;-60
2024/03/23 10:34:38;;;;;;;0.30;0.30;;;13.90;99.90;;;;;;4899839;29;20511;-61
2024/03/23 10:37:05;;;;;;;0.30;0.30;;;14.30;97.80;;;;;;4899751;29;20510;-62
2024/03/23 10:39:35;;;;;;;0.33;0.33;;;14.40;97.50;;;;;;4899996;29;20615;-62
2024/03/23 10:42:07;;;;;;;0.40;0.40;;;14.20;96.60;;;;;;4900330;29;20415;-61
2024/03/23 10:44:33;;;;;;;0.30;0.30;;;13.90;96.70;;;;;;4898566;29;20506;-63
2024/03/23 10:46:59;;;;;;;0.30;0.30;;;13.50;97.20;;;;;;4893826;29;20798;-62
2024/03/23 10:49:32;;;;;;;0.30;0.30;;;13.20;97.70;;;;;;4881194;29;20770;-61
2024/03/23 10:52:02;;;;;;;0.30;0.30;;;12.90;97.40;;;;;;4881225;29;20418;-62
2024/03/23 10:54:30;;;;;;;0.30;0.30;;;12.60;98.30;;;;;;4880662;29;20897;-66
2024/03/23 10:57:54;;;;;;;0.30;0.30;;;12.20;98.00;;;;;;4880687;29;20443;-62
2024/03/23 11:00:21;;;;;;;0.30;0.30;;;11.80;98.60;;;;;;4855673;29;20802;-63
2024/03/23 11:02:48;;;;;;;0.30;0.30;;;11.40;99.20;;;;;;4894105;29;20430;-61
2024/03/23 11:05:26;;;;;;;0.30;0.30;;;10.70;99.90;;;;;;4899267;29;20470;-60
2024/03/23 11:07:53;;;;;;;0.30;0.30;;;9.80;99.90;;;;;;4899281;29;20827;-60
2024/03/23 11:10:29;;;;;;;0.30;0.30;;;9.10;99.90;;;;;;4898015;29;20450;-61
2024/03/23 11:13:18;;;;;;;0.30;0.30;;;8.60;99.90;;;;;;4899304;29;20174;-62
2024/03/23 11:15:44;;;;;;;0.30;0.30;;;8.30;99.90;;;;;;4898735;29;20202;-63
2024/03/23 11:18:09;;;;;;;0.30;0.30;;;8.10;99.90;;;;;;4899633;29;20253;-64
2024/03/23 11:20:35;;;;;;;0.40;0.40;;;7.90;99.90;;;;;;4899629;29;20169;-63
2024/03/23 11:23:01;;;;;;;0.30;0.30;;;7.70;99.90;;;;;;4899325;29;20231;-62
2024/03/23 11:25:28;;;;;;;0.30;0.30;;;7.60;99.90;;;;;;4898937;29;20408;-62
2024/03/23 11:27:59;;;;;;;0.30;0.30;;;7.70;99.90;;;;;;4898171;29;20185;-61
2024/03/23 11:30:26;;;;;;;0.30;0.30;;;8.00;99.90;;;;;;4898528;29;20289;-62
2024/03/23 11:32:56;;;;;;;0.47;0.47;;;8.30;99.90;;;;;;4899364;29;20650;-62
2024/03/23 11:35:32;;;;;;;0.30;0.30;;;8.80;99.90;;;;;;4898957;29;20183;-61
2024/03/23 11:38:08;;;;;;;0.30;0.30;;;9.30;99.90;;;;;;4894500;29;20482;-62
2024/03/23 11:40:36;;;;;;;0.63;0.63;;;9.80;99.90;;;;;;4880617;29;20423;-62
2024/03/23 11:43:04;;;;;;;0.43;0.43;;;10.10;99.90;;;;;;4887228;29;20720;-62
2024/03/23 11:45:37;;;;;;;0.30;0.30;;;10.50;99.90;;;;;;4897150;29;20824;-63
2024/03/23 11:48:06;;;;;;;0.30;0.30;;;10.80;99.90;;;;;;4887852;29;20431;-62
2024/03/23 11:50:32;;;;;;;0.30;0.30;;;11.00;99.90;;;;;;4878988;29;20399;-63
2024/03/23 11:53:31;;;;;;;0.30;0.30;;;11.20;99.90;;;;;;4880689;29;20408;-62
2024/03/23 11:56:17;;;;;;;0.40;0.40;;;11.40;99.90;;;;;;4890716;29;20310;-63
2024/03/23 11:58:43;;;;;;;0.30;0.30;;;11.60;99.90;;;;;;4897571;29;20468;-62
2024/03/23 12:01:10;;;;;;;0.30;0.30;;;11.90;99.90;;;;;;4889467;29;20732;-63
2024/03/23 12:03:37;;;;;;;0.30;0.30;;;12.00;99.90;;;;;;4883792;29;20424;-62
2024/03/23 12:06:04;;;;;;;0.30;0.30;;;12.00;99.90;;;;;;4894096;29;20444;-63
2024/03/23 12:08:30;;;;;;;0.30;0.30;;;11.90;99.90;;;;;;4885431;29;20472;-62
2024/03/23 12:11:14;;;;;;;0.30;0.30;;;11.80;99.90;;;;;;4898674;29;20435;-64
2024/03/23 12:13:45;;;;;;;0.30;0.30;;;11.60;99.90;;;;;;4898547;29;20495;-62
2024/03/23 12:16:16;;;;;;;0.40;0.40;;;11.50;99.90;;;;;;4895058;29;20558;-61
2024/03/23 12:18:44;;;;;;;0.30;0.30;;;11.20;99.90;;;;;;4898127;29;20461;-65
2024/03/23 12:21:09;;;;;;;0.30;0.30;;;10.90;99.90;;;;;;4898538;29;20494;-66
2024/03/23 12:23:38;;;;;;;0.30;0.30;;;10.70;99.90;;;;;;4897944;29;20987;-61
2024/03/23 12:26:04;;;;;;;0.30;0.30;;;10.50;99.90;;;;;;4894649;29;20249;-62
2024/03/23 12:28:29;;;;;;;0.40;0.40;;;10.40;99.90;;;;;;4897980;29;20423;-61
2024/03/23 12:30:55;;;;;;;0.30;0.30;;;10.30;99.90;;;;;;4899927;29;20189;-62
2024/03/23 12:33:21;;;;;;;0.30;0.30;;;10.30;99.90;;;;;;4897798;29;20186;-64
2024/03/23 12:35:50;;;;;;;0.37;0.37;;;10.30;99.90;;;;;;4896367;29;20200;-62
2024/03/23 12:38:16;;;;;;;0.30;0.30;;;10.30;99.90;;;;;;4892241;29;20466;-63
2024/03/23 12:40:41;;;;;;;0.30;0.30;;;10.40;99.90;;;;;;4879125;29;20490;-62
2024/03/23 12:43:10;;;;;;;0.30;0.30;;;10.40;99.90;;;;;;4879506;29;20250;-62
2024/03/23 12:45:35;;;;;;;0.30;0.30;;;10.40;99.90;;;;;;4881181;29;20253;-61
2024/03/23 12:48:01;;;;;;;0.30;0.30;;;10.50;99.90;;;;;;4896034;29;20814;-62
2024/03/23 12:50:26;;;;;;;0.30;0.30;;;10.60;99.90;;;;;;4897987;29;20178;-62
2024/03/23 12:52:52;;;;;;;0.30;0.30;;;10.70;99.90;;;;;;4897775;29;20175;-61
2024/03/23 12:55:18;;;;;;;0.30;0.30;;;10.70;99.90;;;;;;4897622;29;20201;-65
2024/03/23 12:57:43;;;;;;;0.50;0.50;;;10.70;99.90;;;;;;4897784;29;20601;-62
2024/03/23 13:00:12;;;;;;;0.30;0.30;;;10.70;99.90;;;;;;4889911;29;20242;-61
2024/03/23 13:02:39;;;;;;;0.40;0.40;;;10.80;99.90;;;;;;4897730;29;20185;-61
2024/03/23 13:05:05;;;;;;;0.30;0.30;;;10.80;99.90;;;;;;4897142;29;20414;-62
2024/03/23 13:07:31;;;;;;;0.30;0.30;;;10.90;99.90;;;;;;4896744;29;20482;-62
2024/03/23 13:09:56;;;;;;;0.30;0.30;;;11.00;99.90;;;;;;4896036;29;20541;-61
2024/03/23 13:12:23;;;;;;;0.40;0.40;;;11.20;99.90;;;;;;4883952;29;20183;-63
2024/03/23 13:14:48;;;;;;;0.30;0.30;;;11.50;99.20;;;;;;4885023;29;20558;-61
2024/03/23 13:17:14;;;;;;;0.30;0.30;;;11.60;98.40;;;;;;4897601;29;20453;-61
2024/03/23 13:19:40;;;;;;;0.30;0.30;;;11.80;97.50;;;;;;4897524;29;20201;-61
2024/03/23 13:22:06;;;;;;;0.30;0.30;;;11.70;97.20;;;;;;4897555;29;20417;-62
2024/03/23 13:24:32;;;;;;;0.40;0.40;;;11.70;97.90;;;;;;4897361;29;20957;-62
2024/03/23 13:26:58;;;;;;;0.30;0.30;;;11.70;97.50;;;;;;4897668;29;20198;-61
2024/03/23 13:29:24;;;;;;;0.30;0.30;;;11.90;98.00;;;;;;4904764;29;20192;-61
2024/03/23 13:31:51;;;;;;;0.30;0.30;;;12.00;97.10;;;;;;4916750;29;20556;-61
2024/03/23 13:34:17;;;;;;;0.40;0.40;;;12.10;97.00;;;;;;4916348;29;20414;-61
2024/03/23 13:36:46;;;;;;;0.30;0.30;;;12.20;97.10;;;;;;4916012;29;20444;-61
2024/03/23 13:39:13;;;;;;;0.30;0.30;;;12.20;96.50;;;;;;4916464;29;20453;-61
2024/03/23 13:41:42;;;;;;;0.30;0.30;;;12.20;96.20;;;;;;4916449;29;20413;-61
2024/03/23 13:44:10;;;;;;;0.30;0.30;;;12.30;96.10;;;;;;4906296;29;20447;-61
2024/03/23 13:46:36;;;;;;;0.30;0.30;;;12.40;94.30;;;;;;4896794;29;20446;-61
2024/03/23 13:49:02;;;;;;;0.30;0.30;;;12.50;93.80;;;;;;4897455;29;20407;-59
2024/03/23 13:51:27;;;;;;;0.30;0.30;;;12.50;93.70;;;;;;4891960;29;20763;-62
2024/03/23 13:53:57;;;;;;;0.30;0.30;;;12.50;92.90;;;;;;4884414;29;20228;-61
2024/03/23 13:56:23;;;;;;;0.30;0.30;;;12.50;93.90;;;;;;4876914;29;20203;-62
2024/03/23 13:58:49;;;;;;;0.77;0.77;;;12.50;93.30;;;;;;4878946;29;20506;-62
2024/03/23 14:01:17;;;;;;;0.30;0.30;;;12.60;93.10;;;;;;4889479;29;20480;-64
2024/03/23 14:03:44;;;;;;;0.30;0.30;;;12.60;92.00;;;;;;4901045;29;20182;-64
2024/03/23 14:06:10;;;;;;;0.30;0.30;;;12.60;91.40;;;;;;4900533;29;20434;-64
2024/03/23 14:08:39;;;;;;;0.40;0.40;;;12.30;94.00;;;;;;4901091;29;20473;-65
2024/03/23 14:11:06;;;;;;;0.30;0.30;;;11.60;96.60;;;;;;4900681;29;20422;-64
2024/03/23 14:13:32;;;;;;;0.30;0.30;;;10.70;99.90;;;;;;4900305;29;20425;-63
2024/03/23 14:15:58;;;;;;;0.30;0.30;;;10.00;99.90;;;;;;4899834;29;20511;-62
2024/03/23 14:18:24;;;;;;;0.35;0.35;;;9.40;99.90;;;;;;4900426;29;20208;-62
2024/03/23 14:20:50;;;;;;;0.40;0.40;;;8.90;99.90;;;;;;4900206;29;20170;-63
2024/03/23 14:23:16;;;;;;;0.30;0.30;;;8.50;99.90;;;;;;4900564;29;20411;-63
2024/03/23 14:25:42;;;;;;;0.30;0.30;;;8.10;99.90;;;;;;4900086;29;20186;-62
2024/03/23 14:28:17;;;;;;;0.30;0.30;;;7.70;99.90;;;;;;4900242;29;20733;-63
2024/03/23 14:30:43;;;;;;;0.30;0.30;;;7.40;99.90;;;;;;4900497;29;20423;-63
2024/03/23 14:33:09;;;;;;;0.40;0.40;;;7.00;99.90;;;;;;4899107;29;20226;-62
2024/03/23 14:35:35;;;;;;;0.40;0.40;;;6.80;99.90;;;;;;4900063;29;20550;-62
2024/03/23 14:38:00;;;;;;;0.40;0.40;;;6.60;99.90;;;;;;4900550;29;20193;-63
2024/03/23 14:40:29;;;;;;;0.40;0.40;;;6.50;99.90;;;;;;4886251;29;20486;-62
2024/03/23 14:42:55;;;;;;;0.40;0.40;;;6.60;99.90;;;;;;4881710;29;20195;-62
2024/03/23 14:45:23;;;;;;;0.40;0.40;;;6.80;99.90;;;;;;4881244;29;20176;-62
2024/03/23 14:47:49;;;;;;;0.40;0.40;;;7.10;99.90;;;;;;4881568;29;20405;-62
2024/03/23 14:50:16;;;;;;;0.40;0.40;;;7.50;99.90;;;;;;4881690;29;20186;-62
2024/03/23 14:52:47;;;;;;;0.30;0.30;;;7.70;99.90;;;;;;4880176;29;20183;-62
2024/03/23 14:55:14;;;;;;;0.30;0.30;;;7.90;99.90;;;;;;4881208;29;20176;-62
2024/03/23 14:57:39;;;;;;;0.47;0.47;;;8.00;99.90;;;;;;4888197;29;20215;-62
2024/03/23 15:00:12;;;;;;;0.40;0.40;;;8.00;99.90;;;;;;4892091;29;20231;-62
2024/03/23 15:02:39;;;;;;;0.30;0.30;;;8.00;99.90;;;;;;4884565;29;20906;-62
2024/03/23 15:05:05;;;;;;;0.40;0.40;;;8.10;99.90;;;;;;4893622;29;20183;-63
2024/03/23 15:07:31;;;;;;;0.40;0.40;;;8.00;99.90;;;;;;4899697;29;20211;-62
2024/03/23 15:09:57;;;;;;;0.35;0.35;;;8.00;99.90;;;;;;4899879;29;20257;-62
2024/03/23 15:12:22;;;;;;;0.30;0.30;;;8.00;99.90;;;;;;4901809;29;20178;-62
2024/03/23 15:14:48;;;;;;;0.30;0.30;;;8.00;99.90;;;;;;4898476;29;20183;-63
2024/03/23 15:17:14;;;;;;;0.30;0.30;;;8.20;99.90;;;;;;4892157;29;20499;-63
2024/03/23 15:19:41;;;;;;;0.30;0.30;;;8.40;99.90;;;;;;4888818;29;20459;-64
2024/03/23 15:22:08;;;;;;;0.30;0.30;;;8.60;99.90;;;;;;4884483;29;20227;-62
2024/03/23 15:24:35;;;;;;;0.30;0.30;;;8.90;99.90;;;;;;4882005;29;20647;-66
2024/03/23 15:27:01;;;;;;;0.30;0.30;;;9.10;99.90;;;;;;4880865;29;20634;-62
2024/03/23 15:29:27;;;;;;;0.40;0.40;;;9.20;99.90;;;;;;4880883;29;20685;-62
2024/03/23 15:31:53;;;;;;;0.40;0.40;;;9.20;99.90;;;;;;4884213;29;20191;-62
2024/03/23 15:34:21;;;;;;;0.30;0.30;;;9.10;99.90;;;;;;4880992;29;20211;-63
2024/03/23 15:36:50;;;;;;;0.40;0.40;;;9.00;99.90;;;;;;4879984;29;20205;-62
2024/03/23 15:39:18;;;;;;;0.30;0.30;;;8.90;99.90;;;;;;4891940;29;20224;-66
2024/03/23 15:41:45;;;;;;;0.30;0.30;;;8.90;99.90;;;;;;4893382;29;20201;-63
2024/03/23 15:44:11;;;;;;;0.30;0.30;;;8.90;99.90;;;;;;4898074;29;20186;-65
2024/03/23 15:46:36;;;;;;;0.70;0.70;;;8.80;99.90;;;;;;4891070;29;20612;-65
2024/03/23 15:49:02;;;;;;;0.30;0.30;;;8.70;99.90;;;;;;4878878;29;20211;-64
2024/03/23 15:51:32;;;;;;;0.40;0.40;;;8.70;99.90;;;;;;4880159;29;20183;-64
2024/03/23 15:53:58;;;;;;;0.30;0.30;;;8.50;99.90;;;;;;4893476;29;20227;-63
2024/03/23 15:56:24;;;;;;;0.40;0.40;;;8.40;99.90;;;;;;4893293;29;20195;-64
2024/03/23 15:58:50;;;;;;;0.30;0.30;;;8.40;99.90;;;;;;4883860;29;20179;-67
2024/03/23 16:01:15;;;;;;;0.33;0.33;;;8.50;99.90;;;;;;4892839;29;20254;-64
2024/03/23 16:03:41;;;;;;;0.40;0.40;;;8.50;99.90;;;;;;4878654;29;20195;-62
2024/03/23 16:06:07;;;;;;;0.40;0.40;;;8.60;99.90;;;;;;4879083;29;20350;-63
2024/03/23 16:08:33;;;;;;;0.30;0.30;;;8.70;99.90;;;;;;4879325;29;20611;-65
2024/03/23 16:11:03;;;;;;;0.40;0.40;;;8.80;99.90;;;;;;4888051;29;20187;-65
2024/03/23 16:13:30;;;;;;;0.30;0.30;;;8.70;99.90;;;;;;4883412;29;20225;-62
2024/03/23 16:15:57;;;;;;;0.40;0.40;;;8.80;99.90;;;;;;4886343;29;20198;-61
2024/03/23 16:18:23;;;;;;;0.40;0.40;;;8.70;99.90;;;;;;4878997;29;20179;-61
2024/03/23 16:20:56;;;;;;;0.30;0.30;;;8.70;99.90;;;;;;4888476;29;20191;-61
2024/03/23 16:23:22;;;;;;;0.43;0.43;;;8.60;99.90;;;;;;4879925;29;20694;-59
2024/03/23 16:25:57;;;;;;;0.40;0.40;;;8.60;99.90;;;;;;4890073;29;20289;-63
2024/03/23 16:28:27;;;;;;;0.40;0.40;;;8.50;99.90;;;;;;4888520;29;20696;-62
2024/03/23 16:31:01;;;;;;;0.30;0.30;;;8.50;99.90;;;;;;4880654;29;20664;-63
2024/03/23 16:33:28;;;;;;;0.40;0.40;;;8.50;99.90;;;;;;4896876;29;20194;-61
2024/03/23 16:35:57;;;;;;;0.40;0.40;;;8.50;99.90;;;;;;4889106;29;20314;-63
2024/03/23 16:38:23;;;;;;;0.40;0.40;;;8.50;99.90;;;;;;4879633;29;20231;-63
2024/03/23 16:41:00;;;;;;;0.30;0.30;;;8.50;99.90;;;;;;4891374;29;20179;-62
2024/03/23 16:43:26;;;;;;;0.30;0.30;;;8.50;99.90;;;;;;4896172;29;20676;-62
2024/03/23 16:45:53;;;;;;;0.30;0.30;;;8.40;99.90;;;;;;4885015;29;20547;-61
2024/03/23 16:48:19;;;;;;;0.35;0.35;;;8.40;99.90;;;;;;4879364;29;20203;-63
2024/03/23 16:50:45;;;;;;;0.30;0.30;;;8.40;99.90;;;;;;4880993;29;20231;-62
2024/03/23 16:53:11;;;;;;;0.30;0.30;;;8.30;99.90;;;;;;4879157;29;20423;-62
2024/03/23 16:55:36;;;;;;;0.30;0.30;;;8.30;99.90;;;;;;4896317;29;20534;-60
2024/03/23 16:58:02;;;;;;;0.40;0.40;;;8.30;99.90;;;;;;4886404;29;20271;-62
2024/03/23 17:00:27;;;;;;;0.30;0.30;;;8.20;99.90;;;;;;4879015;29;20183;-65
2024/03/23 17:02:53;;;;;;;0.30;0.30;;;8.00;99.90;;;;;;4879648;29;20496;-64
2024/03/23 17:05:22;;;;;;;0.40;0.40;;;7.80;99.90;;;;;;4890924;29;20224;-62
2024/03/23 17:07:48;;;;;;;0.30;0.30;;;7.70;99.90;;;;;;4879303;29;20187;-66
2024/03/23 17:10:14;;;;;;;0.30;0.30;;;7.60;99.90;;;;;;4877925;29;20657;-64
2024/03/23 17:12:40;;;;;;;0.30;0.30;;;7.50;99.90;;;;;;4890346;29;20195;-61
2024/03/23 17:15:06;;;;;;;0.40;0.40;;;7.50;99.90;;;;;;4893009;29;20183;-63
2024/03/23 17:17:31;;;;;;;0.50;0.50;;;7.40;99.90;;;;;;4897496;29;20309;-62
2024/03/23 17:20:02;;;;;;;0.40;0.40;;;7.30;99.90;;;;;;4895453;29;20672;-61
2024/03/23 17:22:28;;;;;;;0.38;0.38;;;7.30;99.90;;;;;;4897642;29;20190;-66
2024/03/23 17:24:53;;;;;;;0.30;0.30;;;7.20;99.90;;;;;;4895778;29;20175;-63
2024/03/23 17:27:19;;;;;;;0.40;0.40;;;7.20;99.90;;;;;;4897253;29;20254;-62
2024/03/23 17:29:47;;;;;;;0.50;0.50;;;7.20;99.90;;;;;;4895866;29;20238;-63
2024/03/23 17:32:13;;;;;;;0.47;0.47;;;7.10;99.90;;;;;;4897237;29;20249;-63
2024/03/23 17:34:39;;;;;;;0.30;0.30;;;7.10;99.90;;;;;;4894694;29;20189;-61
2024/03/23 17:37:04;;;;;;;0.33;0.33;;;7.10;99.90;;;;;;4898162;29;20498;-63
2024/03/23 17:39:33;;;;;;;0.40;0.40;;;7.20;99.90;;;;;;4900886;29;20661;-62
2024/03/23 17:41:59;;;;;;;0.40;0.40;;;7.20;99.90;;;;;;4901531;29;20183;-63
2024/03/23 17:44:24;;;;;;;0.40;0.40;;;7.20;99.90;;;;;;4897860;29;20185;-63
2024/03/23 17:46:50;;;;;;;0.40;0.40;;;7.20;99.90;;;;;;4900824;29;20681;-64
2024/03/23 17:49:16;;;;;;;0.37;0.37;;;7.20;99.90;;;;;;4888049;29;20203;-63
2024/03/23 17:51:44;;;;;;;0.40;0.40;;;7.20;99.90;;;;;;4882772;29;20195;-62
2024/03/23 17:54:12;;;;;;;0.50;0.50;;;7.10;99.90;;;;;;4915045;29;20225;-64
2024/03/23 17:56:38;;;;;;;0.40;0.40;;;7.00;99.90;;;;;;4906637;29;20198;-62